createdAt,value
2018-09-11T00:01:55.623Z,22.70
2018-09-11T00:04:24.159Z,22.70
2018-09-11T00:06:52.808Z,22.70
2018-09-11T00:09:21.397Z,22.60
2018-09-11T00:11:50.018Z,22.60
2018-09-11T00:14:18.603Z,22.60
2018-09-11T00:16:47.179Z,22.60
2018-09-11T00:19:16.680Z,22.60
2018-09-11T00:21:45.303Z,22.60
2018-09-11T00:24:15.265Z,22.60
2018-09-11T00:26:43.967Z,22.60
2018-09-11T00:29:12.852Z,22.50
2018-09-11T00:31:41.478Z,22.50
2018-09-11T00:34:10.666Z,22.50
2018-09-11T00:36:39.330Z,22.40
2018-09-11T00:39:08.553Z,22.40
2018-09-11T00:41:37.064Z,22.40
2018-09-11T00:44:05.663Z,22.40
2018-09-11T00:46:35.411Z,22.40
2018-09-11T00:49:04.095Z,22.40
2018-09-11T00:51:32.633Z,22.40
2018-09-11T00:54:01.252Z,22.40
2018-09-11T00:56:29.834Z,22.40
2018-09-11T00:58:58.407Z,22.30
2018-09-11T01:01:27.096Z,22.30
2018-09-11T01:03:56.373Z,22.30
2018-09-11T01:06:30.628Z,22.30
2018-09-11T01:09:00.217Z,22.30
2018-09-11T01:11:28.903Z,22.30
2018-09-11T01:13:57.495Z,22.30
2018-09-11T01:16:32.777Z,22.30
2018-09-11T01:19:05.011Z,22.30
2018-09-11T01:21:33.650Z,22.30
2018-09-11T01:24:02.260Z,22.30
2018-09-11T01:26:30.840Z,22.20
2018-09-11T01:29:00.112Z,22.10
2018-09-11T01:31:28.691Z,22.00
2018-09-11T01:33:58.255Z,22.00
2018-09-11T01:36:27.126Z,21.90
2018-09-11T01:38:55.691Z,21.80
2018-09-11T01:41:24.229Z,21.80
2018-09-11T01:43:52.882Z,21.70
2018-09-11T01:46:21.556Z,21.70
2018-09-11T01:48:50.100Z,21.70
2018-09-11T01:51:18.633Z,21.60
2018-09-11T01:53:47.212Z,21.60
2018-09-11T01:56:15.863Z,21.60
2018-09-11T01:58:44.522Z,21.50
2018-09-11T02:01:13.072Z,21.50
2018-09-11T02:03:41.748Z,21.50
2018-09-11T02:06:10.382Z,21.50
2018-09-11T02:08:39.167Z,21.40
2018-09-11T02:11:07.732Z,21.40
2018-09-11T02:13:37.457Z,21.30
2018-09-11T02:16:06.044Z,21.20
2018-09-11T02:18:34.552Z,21.20
2018-09-11T02:21:03.249Z,21.20
2018-09-11T02:23:31.849Z,21.20
2018-09-11T02:26:00.535Z,21.20
2018-09-11T02:28:29.069Z,21.10
2018-09-11T02:30:57.798Z,21.10
2018-09-11T02:33:26.408Z,21.10
2018-09-11T02:35:54.988Z,21.20
2018-09-11T02:38:23.541Z,21.20
2018-09-11T02:40:52.205Z,21.20
2018-09-11T02:43:20.838Z,21.30
2018-09-11T02:45:49.353Z,21.30
2018-09-11T02:48:18.549Z,21.30
2018-09-11T02:50:47.223Z,21.30
2018-09-11T02:53:16.143Z,21.30
2018-09-11T02:55:44.811Z,21.20
2018-09-11T02:58:13.334Z,21.20
2018-09-11T03:00:41.962Z,21.20
2018-09-11T03:03:10.948Z,21.10
2018-09-11T03:05:39.501Z,21.10
2018-09-11T03:08:08.132Z,21.10
2018-09-11T03:10:36.702Z,21.10
2018-09-11T03:13:05.962Z,21.20
2018-09-11T03:15:34.518Z,21.20
2018-09-11T03:18:03.194Z,21.10
2018-09-11T03:20:31.727Z,21.10
2018-09-11T03:23:00.273Z,21.20
2018-09-11T03:25:28.764Z,21.10
2018-09-11T03:27:57.389Z,21.20
2018-09-11T03:30:25.931Z,21.10
2018-09-11T03:32:54.371Z,21.10
2018-09-11T03:35:22.944Z,21.00
2018-09-11T03:37:51.495Z,21.00
2018-09-11T03:40:20.129Z,21.00
2018-09-11T03:42:48.672Z,21.00
2018-09-11T03:45:17.294Z,21.00
2018-09-11T03:47:45.784Z,20.90
2018-09-11T03:50:14.597Z,20.90
2018-09-11T03:52:43.097Z,20.80
2018-09-11T03:55:11.607Z,20.80
2018-09-11T03:57:40.205Z,20.80
2018-09-11T04:00:09.840Z,20.80
2018-09-11T04:02:38.453Z,20.70
2018-09-11T04:05:07.099Z,20.70
2018-09-11T04:07:35.731Z,20.70
2018-09-11T04:10:04.306Z,20.70
2018-09-11T04:12:32.904Z,20.70
2018-09-11T04:15:01.475Z,20.70
2018-09-11T04:17:35.289Z,20.70
2018-09-11T04:20:03.996Z,20.70
2018-09-11T04:22:32.512Z,20.70
2018-09-11T04:25:01.129Z,20.70
2018-09-11T04:27:29.754Z,20.70
2018-09-11T04:29:58.433Z,20.70
2018-09-11T04:32:26.912Z,20.70
2018-09-11T04:34:55.464Z,20.70
2018-09-11T04:37:24.093Z,20.70
2018-09-11T04:39:52.721Z,20.70
2018-09-11T04:42:22.134Z,20.70
2018-09-11T04:44:50.825Z,20.70
2018-09-11T04:47:19.416Z,20.80
2018-09-11T04:49:47.979Z,20.80
2018-09-11T04:52:16.499Z,20.80
2018-09-11T04:54:45.113Z,20.70
2018-09-11T04:57:13.737Z,20.70
2018-09-11T04:59:42.218Z,20.70
2018-09-11T05:02:10.979Z,20.70
2018-09-11T05:04:39.582Z,20.70
2018-09-11T05:07:09.317Z,20.60
2018-09-11T05:09:37.928Z,20.60
2018-09-11T05:12:06.515Z,20.50
2018-09-11T05:14:35.067Z,20.50
2018-09-11T05:17:03.547Z,20.60
2018-09-11T05:19:32.120Z,20.70
2018-09-11T05:22:00.635Z,20.70
2018-09-11T05:24:29.208Z,20.70
2018-09-11T05:26:57.679Z,20.70
2018-09-11T05:29:26.256Z,20.80
2018-09-11T05:31:54.879Z,20.70
2018-09-11T05:34:23.868Z,20.70
2018-09-11T05:36:52.745Z,20.70
2018-09-11T05:39:21.344Z,20.70
2018-09-11T05:41:49.876Z,20.70
2018-09-11T05:44:18.411Z,20.70
2018-09-11T05:46:50.122Z,20.60
2018-09-11T05:49:18.844Z,20.60
2018-09-11T05:51:47.514Z,20.60
2018-09-11T05:54:18.236Z,20.60
2018-09-11T05:56:47.033Z,20.70
2018-09-11T05:59:22.610Z,20.80
2018-09-11T06:01:51.257Z,20.80
2018-09-11T06:04:19.746Z,20.90
2018-09-11T06:06:48.352Z,20.90
2018-09-11T06:09:16.921Z,20.90
2018-09-11T06:11:45.465Z,20.90
2018-09-11T06:14:14.032Z,20.90
2018-09-11T06:16:42.658Z,20.90
2018-09-11T06:19:11.228Z,21.00
2018-09-11T06:21:46.779Z,21.00
2018-09-11T06:24:15.599Z,21.00
2018-09-11T06:26:44.163Z,21.10
2018-09-11T06:29:16.519Z,21.10
2018-09-11T06:31:46.110Z,21.10
2018-09-11T06:34:14.644Z,21.10
2018-09-11T06:36:43.308Z,21.20
2018-09-11T06:39:12.227Z,21.20
2018-09-11T06:41:40.782Z,21.20
2018-09-11T06:44:09.446Z,21.20
2018-09-11T06:46:38.040Z,21.20
2018-09-11T06:49:06.619Z,21.30
2018-09-11T06:51:35.204Z,21.40
2018-09-11T06:54:03.787Z,21.40
2018-09-11T06:56:32.411Z,21.50
2018-09-11T06:59:01.007Z,21.50
2018-09-11T07:01:29.522Z,21.60
2018-09-11T07:03:58.012Z,21.60
2018-09-11T07:06:26.793Z,21.70
2018-09-11T07:08:55.354Z,21.70
2018-09-11T07:11:23.897Z,21.80
2018-09-11T07:13:52.501Z,21.80
2018-09-11T07:16:21.055Z,21.90
2018-09-11T07:18:49.721Z,22.00
2018-09-11T07:21:18.276Z,22.20
2018-09-11T07:23:46.853Z,22.30
2018-09-11T07:26:15.460Z,22.40
2018-09-11T07:28:44.033Z,22.50
2018-09-11T07:31:13.215Z,22.60
2018-09-11T07:33:41.817Z,22.70
2018-09-11T07:36:10.366Z,22.80
2018-09-11T07:38:38.966Z,22.90
2018-09-11T07:41:08.077Z,23.00
2018-09-11T07:43:36.748Z,23.10
2018-09-11T07:46:05.339Z,23.20
2018-09-11T07:48:34.220Z,23.30
2018-09-11T07:51:02.781Z,23.40
2018-09-11T07:53:31.309Z,23.50
2018-09-11T07:55:59.849Z,23.60
2018-09-11T07:58:28.345Z,23.60
2018-09-11T08:00:56.915Z,23.70
2018-09-11T08:03:25.474Z,23.70
2018-09-11T08:05:54.004Z,23.80
2018-09-11T08:08:22.615Z,24.00
2018-09-11T08:10:51.233Z,24.10
2018-09-11T08:13:19.795Z,24.10
2018-09-11T08:15:48.665Z,24.20
2018-09-11T08:18:17.241Z,24.30
2018-09-11T08:20:45.817Z,24.40
2018-09-11T08:23:14.426Z,24.50
2018-09-11T08:25:43.071Z,24.60
2018-09-11T08:28:11.673Z,24.70
2018-09-11T08:30:40.264Z,24.70
2018-09-11T08:33:08.826Z,24.80
2018-09-11T08:35:37.454Z,24.90
2018-09-11T08:38:06.062Z,25.00
2018-09-11T08:40:34.733Z,25.20
2018-09-11T08:43:03.344Z,25.20
2018-09-11T08:45:31.969Z,25.10
2018-09-11T08:48:00.514Z,25.20
2018-09-11T08:50:29.141Z,25.20
2018-09-11T08:52:57.801Z,25.30
2018-09-11T08:55:26.345Z,25.30
2018-09-11T08:57:54.951Z,25.40
2018-09-11T09:00:26.527Z,25.60
2018-09-11T09:02:56.333Z,25.60
2018-09-11T09:05:25.284Z,25.60
2018-09-11T09:07:53.924Z,25.70
2018-09-11T09:10:22.798Z,25.70
2018-09-11T09:12:51.373Z,25.70
2018-09-11T09:15:20.460Z,25.80
2018-09-11T09:17:49.257Z,25.80
2018-09-11T09:20:17.811Z,25.70
2018-09-11T09:22:46.411Z,25.80
2018-09-11T09:25:15.159Z,25.90
2018-09-11T09:27:43.845Z,25.90
2018-09-11T09:30:17.418Z,25.90
2018-09-11T09:32:46.318Z,26.00
2018-09-11T09:35:15.276Z,26.10
2018-09-11T09:37:44.418Z,26.20
2018-09-11T09:40:13.006Z,26.20
2018-09-11T09:42:41.799Z,26.20
2018-09-11T09:45:10.894Z,26.30
2018-09-11T09:47:39.926Z,26.20
2018-09-11T09:50:09.096Z,26.20
2018-09-11T09:52:38.653Z,26.30
2018-09-11T09:55:07.558Z,26.40
2018-09-11T09:57:36.176Z,26.40
2018-09-11T10:00:05.228Z,26.50
2018-09-11T10:02:35.103Z,26.50
2018-09-11T10:05:03.804Z,26.60
2018-09-11T10:07:32.480Z,26.70
2018-09-11T10:10:02.388Z,26.70
2018-09-11T10:12:32.347Z,26.80
2018-09-11T10:15:02.255Z,26.80
2018-09-11T10:17:32.681Z,26.80
2018-09-11T10:20:01.761Z,26.80
2018-09-11T10:22:32.740Z,27.00
2018-09-11T10:25:02.535Z,27.10
2018-09-11T10:27:32.145Z,27.40
2018-09-11T10:30:01.858Z,27.90
2018-09-11T10:32:39.326Z,28.30
2018-09-11T10:35:08.380Z,28.50
2018-09-11T10:37:37.942Z,28.40
2018-09-11T10:40:10.185Z,28.30
2018-09-11T10:45:37.474Z,28.10
2018-09-11T10:48:16.249Z,27.90
2018-09-11T10:50:46.853Z,27.60
2018-09-11T10:53:18.368Z,27.50
2018-09-11T10:55:48.531Z,27.60
2018-09-11T10:58:42.336Z,27.60
2018-09-11T11:01:12.062Z,27.40
2018-09-11T11:03:42.856Z,27.20
2018-09-11T11:06:22.369Z,27.40
2018-09-11T11:09:00.862Z,27.60
2018-09-11T11:11:31.169Z,27.90
2018-09-11T11:14:03.112Z,28.40
2018-09-11T11:16:36.474Z,29.00
2018-09-11T11:19:06.929Z,29.10
2018-09-11T11:21:44.344Z,29.00
2018-09-11T11:24:23.863Z,28.90
2018-09-11T11:29:37.453Z,29.60
2018-09-11T11:32:08.858Z,29.70
2018-09-11T11:34:42.722Z,29.50
2018-09-11T11:37:14.896Z,29.30
2018-09-11T11:39:45.184Z,29.10
2018-09-11T11:42:16.657Z,28.90
2018-09-11T11:44:46.859Z,28.90
2018-09-11T11:47:19.866Z,28.80
2018-09-11T11:49:52.814Z,28.80
2018-09-11T11:52:21.758Z,28.70
2018-09-11T11:54:52.590Z,28.60
2018-09-11T11:57:25.744Z,28.60
2018-09-11T11:59:56.420Z,28.50
2018-09-11T12:02:27.252Z,28.60
2018-09-11T12:05:15.053Z,28.70
2018-09-11T12:07:49.225Z,28.80
2018-09-11T12:10:21.173Z,28.90
2018-09-11T12:12:55.074Z,28.90
2018-09-11T12:15:44.797Z,29.00
2018-09-11T12:18:24.764Z,29.20
2018-09-11T12:20:55.367Z,29.20
2018-09-11T12:23:28.935Z,29.10
2018-09-11T12:26:02.457Z,29.00
2018-09-11T12:28:34.808Z,29.00
2018-09-11T12:31:06.674Z,28.90
2018-09-11T12:33:42.192Z,28.90
2018-09-11T12:36:15.780Z,28.90
2018-09-11T12:38:46.525Z,28.80
2018-09-11T12:41:17.492Z,28.80
2018-09-11T12:43:49.663Z,28.80
2018-09-11T12:46:23.853Z,28.80
2018-09-11T12:49:00.529Z,28.90
2018-09-11T12:51:39.734Z,28.90
2018-09-11T12:54:10.572Z,28.90
2018-09-11T12:56:39.105Z,28.90
2018-09-11T12:59:11.113Z,29.00
2018-09-11T13:01:42.268Z,29.00
2018-09-11T13:07:06.345Z,29.20
2018-09-11T13:09:36.633Z,29.20
2018-09-11T13:12:25.613Z,29.10
2018-09-11T13:15:10.088Z,29.20
2018-09-11T13:17:42.243Z,29.30
2018-09-11T13:20:11.550Z,29.30
2018-09-11T13:22:42.294Z,29.30
2018-09-11T13:25:10.978Z,29.30
2018-09-11T13:27:40.481Z,29.40
2018-09-11T13:30:09.015Z,29.40
2018-09-11T13:32:37.598Z,29.40
2018-09-11T13:35:06.128Z,29.40
2018-09-11T13:37:34.681Z,29.40
2018-09-11T13:40:03.326Z,29.40
2018-09-11T13:42:31.845Z,29.40
2018-09-11T13:45:00.369Z,29.50
2018-09-11T13:47:29.053Z,29.50
2018-09-11T13:49:58.244Z,29.60
2018-09-11T13:52:26.753Z,29.60
2018-09-11T13:54:55.892Z,29.60
2018-09-11T13:57:24.458Z,29.70
2018-09-11T13:59:53.754Z,29.70
2018-09-11T14:02:22.399Z,29.80
2018-09-11T14:04:50.953Z,29.80
2018-09-11T14:07:19.547Z,29.90
2018-09-11T14:09:48.038Z,29.90
2018-09-11T14:12:16.584Z,30.00
2018-09-11T14:14:45.081Z,30.00
2018-09-11T14:17:14.378Z,30.10
2018-09-11T14:19:42.924Z,30.10
2018-09-11T14:22:11.539Z,30.10
2018-09-11T14:24:40.073Z,30.10
2018-09-11T14:27:08.713Z,30.20
2018-09-11T14:29:37.469Z,30.20
2018-09-11T14:32:06.133Z,30.20
2018-09-11T14:34:34.789Z,30.20
2018-09-11T14:37:03.358Z,30.30
2018-09-11T14:39:32.015Z,30.40
2018-09-11T14:42:00.628Z,30.30
2018-09-11T14:44:29.178Z,30.30
2018-09-11T14:46:57.808Z,30.30
2018-09-11T14:49:26.355Z,30.30
2018-09-11T14:51:55.026Z,30.30
2018-09-11T14:54:23.576Z,30.30
2018-09-11T14:56:52.129Z,30.30
2018-09-11T14:59:20.757Z,30.30
2018-09-11T15:01:49.249Z,30.30
2018-09-11T15:04:17.818Z,30.30
2018-09-11T15:06:46.387Z,30.30
2018-09-11T15:09:14.955Z,30.30
2018-09-11T15:11:43.512Z,30.30
2018-09-11T15:14:12.060Z,30.30
2018-09-11T15:16:40.724Z,30.30
2018-09-11T15:19:09.216Z,30.30
2018-09-11T15:21:38.784Z,30.30
2018-09-11T15:24:07.695Z,30.30
2018-09-11T15:26:36.489Z,30.30
2018-09-11T15:29:05.524Z,30.20
2018-09-11T15:31:34.129Z,30.30
2018-09-11T15:34:02.732Z,30.30
2018-09-11T15:36:31.263Z,30.30
2018-09-11T15:38:59.745Z,30.30
2018-09-11T15:41:28.342Z,30.20
2018-09-11T15:43:56.922Z,30.20
2018-09-11T15:46:25.405Z,30.10
2018-09-11T15:48:54.272Z,30.10
2018-09-11T15:51:22.793Z,30.10
2018-09-11T15:53:51.348Z,30.10
2018-09-11T15:56:19.958Z,30.10
2018-09-11T15:58:48.567Z,30.00
2018-09-11T16:01:17.138Z,30.00
2018-09-11T16:03:45.701Z,30.00
2018-09-11T16:06:14.276Z,30.00
2018-09-11T16:08:50.925Z,29.90
2018-09-11T16:11:19.579Z,30.00
2018-09-11T16:13:48.141Z,30.00
2018-09-11T16:16:16.677Z,30.00
2018-09-11T16:18:45.319Z,30.00
2018-09-11T16:21:13.905Z,30.00
2018-09-11T16:23:42.548Z,30.00
2018-09-11T16:26:11.090Z,29.90
2018-09-11T16:28:39.646Z,29.90
2018-09-11T16:31:08.196Z,29.80
2018-09-11T16:33:37.100Z,29.80
2018-09-11T16:36:05.761Z,29.70
2018-09-11T16:38:35.419Z,29.70
2018-09-11T16:41:04.026Z,29.60
2018-09-11T16:43:33.163Z,29.60
2018-09-11T16:46:01.670Z,29.50
2018-09-11T16:48:30.291Z,29.50
2018-09-11T16:50:58.763Z,29.50
2018-09-11T16:53:27.332Z,29.40
2018-09-11T16:55:55.872Z,29.40
2018-09-11T16:58:24.605Z,29.30
2018-09-11T17:00:53.172Z,29.30
2018-09-11T17:03:21.802Z,29.30
2018-09-11T17:05:50.541Z,29.20
2018-09-11T17:08:19.138Z,29.10
2018-09-11T17:10:47.627Z,29.10
2018-09-11T17:13:16.263Z,29.00
2018-09-11T17:15:44.901Z,28.90
2018-09-11T17:18:13.490Z,28.80
2018-09-11T17:20:42.683Z,28.80
2018-09-11T17:23:11.625Z,28.80
2018-09-11T17:25:40.108Z,28.70
2018-09-11T17:28:08.632Z,28.70
2018-09-11T17:30:37.460Z,28.60
2018-09-11T17:33:06.066Z,28.60
2018-09-11T17:35:34.610Z,28.50
2018-09-11T17:38:03.167Z,28.50
2018-09-11T17:40:31.658Z,28.40
2018-09-11T17:43:00.196Z,28.40
2018-09-11T17:45:29.325Z,28.30
2018-09-11T17:47:57.885Z,28.30
2018-09-11T17:50:26.431Z,28.30
2018-09-11T17:52:54.932Z,28.20
2018-09-11T17:55:23.550Z,28.20
2018-09-11T17:57:52.037Z,28.10
2018-09-11T18:00:20.524Z,28.10
2018-09-11T18:02:49.117Z,28.10
2018-09-11T18:05:17.745Z,28.10
2018-09-11T18:07:46.362Z,28.00
2018-09-11T18:10:14.922Z,28.00
2018-09-11T18:12:43.396Z,28.00
2018-09-11T18:15:11.953Z,27.90
2018-09-11T18:17:40.464Z,27.90
2018-09-11T18:20:08.977Z,27.90
2018-09-11T18:22:37.552Z,27.80
2018-09-11T18:25:06.127Z,27.80
2018-09-11T18:27:34.628Z,27.80
2018-09-11T18:30:03.317Z,27.70
2018-09-11T18:32:31.884Z,27.70
2018-09-11T18:35:11.669Z,27.70
2018-09-11T18:37:40.561Z,27.70
2018-09-11T18:40:09.156Z,27.60
2018-09-11T18:42:37.934Z,27.60
2018-09-11T18:45:06.723Z,27.60
2018-09-11T18:47:38.923Z,27.60
2018-09-11T18:50:07.430Z,27.50
2018-09-11T18:52:35.904Z,27.50
2018-09-11T18:55:04.498Z,27.50
2018-09-11T18:57:33.006Z,27.50
2018-09-11T19:00:01.602Z,27.40
2018-09-11T19:02:30.201Z,27.40
2018-09-11T19:04:58.750Z,27.40
2018-09-11T19:07:27.289Z,27.40
2018-09-11T19:09:55.826Z,27.40
2018-09-11T19:12:24.363Z,27.30
2018-09-11T19:14:52.842Z,27.30
2018-09-11T19:17:21.413Z,27.30
2018-09-11T19:19:52.525Z,27.30
2018-09-11T19:22:22.791Z,27.20
2018-09-11T19:24:51.349Z,27.20
2018-09-11T19:27:19.860Z,27.20
2018-09-11T19:29:48.377Z,27.20
2018-09-11T19:32:16.934Z,27.10
2018-09-11T19:34:45.517Z,27.10
2018-09-11T19:37:13.986Z,27.00
2018-09-11T19:39:42.547Z,27.00
2018-09-11T19:42:14.922Z,27.00
2018-09-11T19:44:43.850Z,27.00
2018-09-11T19:47:12.794Z,26.90
2018-09-11T19:49:41.718Z,27.00
2018-09-11T19:52:10.849Z,26.90
2018-09-11T19:54:39.857Z,26.90
2018-09-11T19:57:08.747Z,26.90
2018-09-11T19:59:37.719Z,26.90
2018-09-11T20:02:06.508Z,26.80
2018-09-11T20:04:38.705Z,26.80
2018-09-11T20:07:07.415Z,26.80
2018-09-11T20:09:36.198Z,26.70
2018-09-11T20:12:05.184Z,26.70
2018-09-11T20:14:33.840Z,26.70
2018-09-11T20:17:02.425Z,26.70
2018-09-11T20:19:31.013Z,26.70
2018-09-11T20:22:00.482Z,26.70
2018-09-11T20:24:29.116Z,26.60
2018-09-11T20:29:54.263Z,26.60
2018-09-11T20:32:26.749Z,26.60
2018-09-11T20:34:56.164Z,26.60
2018-09-11T20:37:24.797Z,26.60
2018-09-11T20:39:53.341Z,26.50
2018-09-11T20:42:21.869Z,26.50
2018-09-11T20:44:50.737Z,26.50
2018-09-11T20:47:19.274Z,26.50
2018-09-11T20:49:47.789Z,26.40
2018-09-11T20:52:16.336Z,26.40
2018-09-11T20:55:00.438Z,26.40
2018-09-11T20:57:28.958Z,26.30
2018-09-11T20:59:57.688Z,26.30
2018-09-11T21:02:26.169Z,26.30
2018-09-11T21:04:54.648Z,26.20
2018-09-11T21:07:23.184Z,26.20
2018-09-11T21:09:51.761Z,26.20
2018-09-11T21:12:20.244Z,26.20
2018-09-11T21:14:48.911Z,26.10
2018-09-11T21:17:17.379Z,26.10
2018-09-11T21:19:45.935Z,26.10
2018-09-11T21:22:14.490Z,26.10
2018-09-11T21:24:43.005Z,26.10
2018-09-11T21:27:11.481Z,26.00
2018-09-11T21:29:40.030Z,26.00
2018-09-11T21:32:15.273Z,26.00
2018-09-11T21:34:43.735Z,26.00
2018-09-11T21:37:12.273Z,25.90
2018-09-11T21:39:40.884Z,25.90
2018-09-11T21:42:10.345Z,25.90
2018-09-11T21:44:40.225Z,25.90
2018-09-11T21:47:10.569Z,25.90
2018-09-11T21:49:40.114Z,25.80
2018-09-11T21:52:10.151Z,25.80
2018-09-11T21:54:39.234Z,25.80
2018-09-11T21:57:08.224Z,25.80
2018-09-11T21:59:37.395Z,25.70
2018-09-11T22:02:06.798Z,25.70
2018-09-11T22:04:36.007Z,25.70
2018-09-11T22:07:05.450Z,25.70
2018-09-11T22:09:34.416Z,25.60
2018-09-11T22:12:03.033Z,25.60
2018-09-11T22:14:31.497Z,25.60
2018-09-11T22:17:00.040Z,25.50
2018-09-11T22:19:28.626Z,25.50
2018-09-11T22:21:57.146Z,25.50
2018-09-11T22:24:25.643Z,25.50
2018-09-11T22:26:54.138Z,25.50
2018-09-11T22:29:22.617Z,25.50
2018-09-11T22:31:51.468Z,25.50
2018-09-11T22:35:23.015Z,25.50
2018-09-11T22:37:51.594Z,25.40
2018-09-11T22:40:20.130Z,25.40
2018-09-11T22:42:48.792Z,25.40
2018-09-11T22:45:17.393Z,25.40
2018-09-11T22:47:47.114Z,25.40
2018-09-11T22:50:15.778Z,25.30
2018-09-11T22:52:44.329Z,25.30
2018-09-11T22:55:12.876Z,25.30
2018-09-11T22:57:41.424Z,25.30
2018-09-11T23:00:10.176Z,25.30
2018-09-11T23:02:38.684Z,25.20
2018-09-11T23:05:07.289Z,25.20
2018-09-11T23:07:35.956Z,25.20
2018-09-11T23:10:04.724Z,25.20
2018-09-11T23:12:33.220Z,25.20
2018-09-11T23:15:01.766Z,25.20
2018-09-11T23:17:30.205Z,25.10
2018-09-11T23:19:58.859Z,25.10
2018-09-11T23:22:27.415Z,25.10
2018-09-11T23:24:56.000Z,25.00
2018-09-11T23:27:24.675Z,25.10
2018-09-11T23:29:53.296Z,25.00
2018-09-11T23:32:22.262Z,25.00
2018-09-11T23:34:50.762Z,25.00
2018-09-11T23:37:19.326Z,25.00
2018-09-11T23:39:47.884Z,24.90
2018-09-11T23:42:16.499Z,24.90
2018-09-11T23:44:45.128Z,24.80
2018-09-11T23:47:13.736Z,24.70
2018-09-11T23:49:42.288Z,24.70
2018-09-11T23:52:11.104Z,24.70
2018-09-11T23:54:39.627Z,24.80
2018-09-11T23:57:08.159Z,24.70
2018-09-11T23:59:36.739Z,24.70
